KBRY/BRY METAR and TAF weather

Enter ICAO airport designator
Station Type Date Time Source
KBRY METAR 2020/02/24 23:15 UTC NOAA

KBRY 242315Z AUTO 13005KT 5SM SCT003 SCT008 OVC014 06/06 A2973 RMK AO1


Station Type Date Time Source
KBRY Decoded METAR 2020/02/24 23:15 UTC NOAA

Station name not available
Feb 24, 2020 - 06:15 PM EST / 2020.02.24 2315 UTC
Wind: from the SE (130 degrees) at 6 MPH (5 KT):0
Visibility: 5 mile(s):0
Sky conditions: overcast
Temperature: 42 F (6 C)
Dew Point: 42 F (6 C)
Relative Humidity: 100%
Pressure (altimeter): 29.73 in. Hg (1006 hPa)
ob: KBRY 242315Z AUTO 13005KT 5SM SCT003 SCT008 OVC014 06/06 A2973 RMK AO1
cycle: 23

Station Type Date Time Source
KBRY TAF UTC NOAA

Error!

Example: see airport list